Terminal Aerodrome Forecast
Issued by NWS

Home | Current Version | Previous Version | Text Only | Print | Product List | Glossary On
Versions: 1 2 3 4 5 6 7 8 9 10 11 12 13 14 15 16 17 18 19 20 21 22 23 24 25 26 27 28 29 30 31 32 33 34 35 36 37 38 39 40
181
FTUS45 KBOU 260904 AAA
TAFBJC
TAF AMD
KBJC 260904Z 2609/2706 VRB03KT P6SM VCSH SCT060 OVC100
     FM261300 34009KT P6SM SCT025 OVC040
     FM261700 VRB06KT P6SM SCT030 BKN060
     FM262100 04009KT P6SM SCT060 BKN150 PROB30 2621/2702 VRB15G25KT
      P6SM -TSRA SCT050CB BKN120
     FM270200 25010KT P6SM SCT080 BKN150=

USA.gov is the U.S. government's official web portal to all federal, state and local government web resources and services.